CheckWX is a tool to help pilots better visualize weather data.  It is not intended as a substitute for an official pre-flight weather briefing.

02:44:46 UTC

KIAB METAR
Mc Connell AFB Airport
Wichita, Kansas, USA
Current

19 mins ago

KIAB 160226Z AUTO 03004KT 3SM BR SCT011 OVC025 M04/M06 A3002 RMK AO2 CIG 011V025 CIG 010 RWY19 SLP184 $
Observed
Dec-16 @ 02:26 UTC
Wind
  • 030° at 4 KTS
Visibility
3 SM
Flight Rules
MVFR
Conditions
Mist
Cloud Levels
  • Scattered at 1,100' AGL
  • Overcast at 2,500' AGL
Temperature
-4°C / 25°F
Dewpoint
-6°C / 21°F
Humidity
86%
Altimeter
30.02" Hg
Pressure
1016.62 hPa
Previous

34 mins ago

KIAB 160211Z AUTO 02004KT 3SM BR OVC011 M04/M06 A3003 RMK AO2 CIG 010 RWY19 SLP188 $
Observed
Dec-16 @ 02:11 UTC
Wind
  • 020° at 4 KTS
Visibility
3 SM
Flight Rules
MVFR
Conditions
Mist
Cloud Levels
  • Overcast at 1,100' AGL
Temperature
-4°C / 25°F
Dewpoint
-6°C / 21°F
Humidity
86%
Altimeter
30.03" Hg
Pressure
1016.92 hPa
Previous

44 mins ago

KIAB 160201Z AUTO 03003KT 3SM BR OVC010 M04/M05 A3003 RMK AO2 SLP188 $
Observed
Dec-16 @ 02:01 UTC
Wind
  • 030° at 3 KTS
Visibility
3 SM
Flight Rules
MVFR
Conditions
Mist
Cloud Levels
  • Overcast at 1,000' AGL
Temperature
-4°C / 25°F
Dewpoint
-5°C / 23°F
Humidity
93%
Altimeter
30.03" Hg
Pressure
1016.92 hPa